createdAt,value
2022-11-29T00:01:53.751Z,16.35
2022-11-29T00:04:21.841Z,20.65
2022-11-29T00:06:49.886Z,15.65
2022-11-29T00:09:19.284Z,16.05
2022-11-29T00:12:04.582Z,25.85
2022-11-29T00:14:32.616Z,15.63
2022-11-29T00:17:02.627Z,25.48
2022-11-29T00:19:32.015Z,30.00
2022-11-29T00:22:00.764Z,29.90
2022-11-29T00:24:32.454Z,17.17
2022-11-29T00:27:01.340Z,19.27
2022-11-29T00:29:30.734Z,15.38
2022-11-29T00:31:58.794Z,22.58
2022-11-29T00:34:26.907Z,19.65
2022-11-29T00:36:54.982Z,20.67
2022-11-29T00:39:22.936Z,17.63
2022-11-29T00:41:52.393Z,18.92
2022-11-29T00:44:20.857Z,17.73
2022-11-29T00:46:49.743Z,17.40
2022-11-29T00:49:18.400Z,14.57
2022-11-29T00:51:46.501Z,18.02
2022-11-29T00:54:14.469Z,13.50
2022-11-29T00:56:42.915Z,16.58
2022-11-29T00:59:12.303Z,17.55
2022-11-29T01:01:40.558Z,23.00
2022-11-29T01:04:08.551Z,16.13
2022-11-29T01:06:36.687Z,15.32
2022-11-29T01:09:05.345Z,13.35
2022-11-29T01:11:33.353Z,18.95
2022-11-29T01:14:03.700Z,7.70
2022-11-29T01:16:33.722Z,14.55
2022-11-29T01:19:02.075Z,10.40
2022-11-29T01:21:30.685Z,20.08
2022-11-29T01:23:58.829Z,16.75
2022-11-29T01:26:28.952Z,16.17
2022-11-29T01:28:57.951Z,16.40
2022-11-29T01:31:28.651Z,7.68
2022-11-29T01:34:00.342Z,20.48
2022-11-29T01:36:29.028Z,12.55
2022-11-29T01:38:57.307Z,12.38
2022-11-29T01:41:26.963Z,15.05
2022-11-29T01:44:04.166Z,17.42
2022-11-29T01:46:33.911Z,15.77
2022-11-29T01:49:11.117Z,16.73
2022-11-29T01:51:43.275Z,8.70
2022-11-29T01:54:12.956Z,14.82
2022-11-29T01:56:41.434Z,18.83
2022-11-29T01:59:12.532Z,13.75
2022-11-29T02:01:40.622Z,14.85
2022-11-29T02:04:10.512Z,13.88
2022-11-29T02:06:40.313Z,13.00
2022-11-29T02:09:19.741Z,16.10
2022-11-29T02:12:05.143Z,11.35
2022-11-29T02:14:57.861Z,10.52
2022-11-29T02:17:35.132Z,10.77
2022-11-29T02:20:32.826Z,11.55
2022-11-29T02:23:14.613Z,15.43
2022-11-29T02:26:00.244Z,12.95
2022-11-29T02:29:06.503Z,19.23
2022-11-29T02:32:09.232Z,15.40
2022-11-29T02:34:55.183Z,16.90
2022-11-29T02:38:00.424Z,11.50
2022-11-29T02:41:02.138Z,14.25
2022-11-29T02:43:59.154Z,15.70
2022-11-29T02:46:47.264Z,19.23
2022-11-29T02:49:27.460Z,12.85
2022-11-29T02:52:01.490Z,15.77
2022-11-29T02:54:37.755Z,13.85
2022-11-29T02:57:14.506Z,15.55
2022-11-29T02:59:51.805Z,12.68
2022-11-29T03:02:28.610Z,10.00
2022-11-29T03:05:04.395Z,17.58
2022-11-29T03:07:42.709Z,23.02
2022-11-29T03:10:23.225Z,13.68
2022-11-29T03:12:54.884Z,15.50
2022-11-29T03:15:30.705Z,20.40
2022-11-29T03:18:10.435Z,12.40
2022-11-29T03:20:49.740Z,10.18
2022-11-29T03:23:26.908Z,10.27
2022-11-29T03:26:00.487Z,13.25
2022-11-29T03:28:32.577Z,22.00
2022-11-29T03:31:08.288Z,16.90
2022-11-29T03:33:41.942Z,15.93
2022-11-29T03:36:16.538Z,22.98
2022-11-29T03:38:47.481Z,7.45
2022-11-29T03:41:22.150Z,11.65
2022-11-29T03:43:58.581Z,13.32
2022-11-29T03:46:34.493Z,12.85
2022-11-29T03:49:05.479Z,12.63
2022-11-29T03:51:45.683Z,24.83
2022-11-29T03:54:21.033Z,10.90
2022-11-29T03:56:49.865Z,15.60
2022-11-29T03:59:30.782Z,10.13
2022-11-29T04:02:15.628Z,14.63
2022-11-29T04:05:12.320Z,12.38
2022-11-29T04:08:00.475Z,11.32
2022-11-29T04:10:53.906Z,16.20
2022-11-29T04:14:07.074Z,9.55
2022-11-29T04:17:05.209Z,8.73
2022-11-29T04:20:14.060Z,13.18
2022-11-29T04:23:19.791Z,15.48
2022-11-29T04:26:11.009Z,12.32
2022-11-29T04:29:08.240Z,15.32
2022-11-29T04:31:46.421Z,10.07
2022-11-29T04:34:43.195Z,14.35
2022-11-29T04:37:39.446Z,13.07
2022-11-29T04:40:28.939Z,6.72
2022-11-29T04:43:21.360Z,14.13
2022-11-29T04:46:16.162Z,13.80
2022-11-29T04:49:07.395Z,15.15
2022-11-29T04:51:49.784Z,16.90
2022-11-29T04:54:25.990Z,10.70
2022-11-29T04:57:00.365Z,8.05
2022-11-29T04:59:40.451Z,13.93
2022-11-29T05:02:17.571Z,9.88
2022-11-29T05:04:54.338Z,7.80
2022-11-29T05:07:30.895Z,13.57
2022-11-29T05:10:07.363Z,9.10
2022-11-29T05:12:45.373Z,6.30
2022-11-29T05:15:39.818Z,13.98
2022-11-29T05:20:54.212Z,6.20
2022-11-29T05:23:35.454Z,15.70
2022-11-29T05:26:10.625Z,12.48
2022-11-29T05:28:51.539Z,7.40
2022-11-29T05:31:39.750Z,5.43
2022-11-29T05:34:31.703Z,4.80
2022-11-29T05:37:14.365Z,8.75
2022-11-29T05:39:59.032Z,10.32
2022-11-29T05:43:03.602Z,8.07
2022-11-29T05:45:37.453Z,10.25
2022-11-29T05:50:43.169Z,8.57
2022-11-29T05:53:22.716Z,8.82
2022-11-29T05:56:03.311Z,13.45
2022-11-29T05:58:49.071Z,6.82
2022-11-29T06:01:23.659Z,16.50
2022-11-29T06:04:01.345Z,4.38
2022-11-29T06:06:42.197Z,18.63
2022-11-29T06:09:19.643Z,10.00
2022-11-29T06:11:51.946Z,20.80
2022-11-29T06:14:36.799Z,42.22
2022-11-29T06:17:26.499Z,60.22
2022-11-29T06:20:09.126Z,49.05
2022-11-29T06:23:13.696Z,36.17
2022-11-29T06:26:00.658Z,21.98
2022-11-29T06:28:45.913Z,19.02
2022-11-29T06:31:20.396Z,18.55
2022-11-29T06:33:57.511Z,19.60
2022-11-29T06:36:32.327Z,28.25
2022-11-29T06:39:00.660Z,33.33
2022-11-29T06:41:29.183Z,44.92
2022-11-29T06:43:57.859Z,55.50
2022-11-29T06:46:42.387Z,42.45
2022-11-29T06:49:14.243Z,23.92
2022-11-29T06:51:53.153Z,27.55
2022-11-29T06:54:35.940Z,50.25
2022-11-29T06:57:12.131Z,28.65
2022-11-29T06:59:52.775Z,15.10
2022-11-29T07:02:55.419Z,17.42
2022-11-29T07:05:26.762Z,19.05
2022-11-29T07:07:58.251Z,16.88
2022-11-29T07:10:28.815Z,14.48
2022-11-29T07:12:57.412Z,16.58
2022-11-29T07:15:26.276Z,13.20
2022-11-29T07:18:13.334Z,10.93
2022-11-29T07:20:50.755Z,15.63
2022-11-29T07:23:30.358Z,9.30
2022-11-29T07:26:10.335Z,15.73
2022-11-29T07:28:48.626Z,8.95
2022-11-29T07:31:26.361Z,12.77
2022-11-29T07:34:07.813Z,12.18
2022-11-29T07:36:42.307Z,11.20
2022-11-29T07:39:25.242Z,10.38
2022-11-29T07:42:04.065Z,11.63
2022-11-29T07:44:38.533Z,16.40
2022-11-29T07:47:06.585Z,44.83
2022-11-29T07:49:34.598Z,19.65
2022-11-29T07:52:02.675Z,16.60
2022-11-29T07:54:32.573Z,13.00
2022-11-29T07:57:00.650Z,15.70
2022-11-29T07:59:28.625Z,18.90
2022-11-29T08:01:56.912Z,20.90
2022-11-29T08:04:25.085Z,18.08
2022-11-29T08:06:53.387Z,19.48
2022-11-29T08:09:21.721Z,15.55
2022-11-29T08:11:54.341Z,14.82
2022-11-29T08:14:22.602Z,21.05
2022-11-29T08:25:22.029Z,30.80
2022-11-29T08:27:56.218Z,22.63
2022-11-29T08:30:25.014Z,27.05
2022-11-29T08:32:53.945Z,27.77
2022-11-29T08:35:24.229Z,21.25
2022-11-29T08:37:52.592Z,17.80
2022-11-29T08:40:20.709Z,23.80
2022-11-29T08:42:48.727Z,23.73
2022-11-29T08:45:18.222Z,16.55
2022-11-29T08:47:46.279Z,15.60
2022-11-29T08:50:16.002Z,23.08
2022-11-29T08:53:03.261Z,17.75
2022-11-29T08:55:34.204Z,14.15
2022-11-29T08:58:04.585Z,15.07
2022-11-29T09:00:35.308Z,26.63
2022-11-29T09:03:18.326Z,10.93
2022-11-29T09:05:46.378Z,12.80
2022-11-29T09:08:14.973Z,21.33
2022-11-29T09:10:43.331Z,15.30
2022-11-29T09:13:12.341Z,19.80
2022-11-29T09:15:43.677Z,14.93
2022-11-29T09:18:11.845Z,13.57
2022-11-29T09:20:42.863Z,10.30
2022-11-29T09:23:11.814Z,28.80
2022-11-29T09:25:39.852Z,15.32
2022-11-29T09:28:09.465Z,13.00
2022-11-29T09:30:43.243Z,14.50
2022-11-29T09:33:15.155Z,12.55
2022-11-29T09:35:43.732Z,9.27
2022-11-29T09:38:13.675Z,15.65
2022-11-29T09:40:48.174Z,11.18
2022-11-29T09:43:26.036Z,15.60
2022-11-29T09:46:01.797Z,11.73
2022-11-29T09:49:13.549Z,12.85
2022-11-29T09:51:55.214Z,11.70
2022-11-29T09:54:37.193Z,23.52
2022-11-29T09:57:10.812Z,15.98
2022-11-29T09:59:43.466Z,17.63
2022-11-29T10:02:21.712Z,13.35
2022-11-29T10:04:55.610Z,16.05
2022-11-29T10:07:28.554Z,25.98
2022-11-29T10:10:03.847Z,24.37
2022-11-29T10:12:38.116Z,26.60
2022-11-29T10:15:13.939Z,21.95
2022-11-29T10:17:48.742Z,22.30
2022-11-29T10:20:21.001Z,21.92
2022-11-29T10:22:55.454Z,21.70
2022-11-29T10:25:27.016Z,21.13
2022-11-29T10:27:55.651Z,40.50
2022-11-29T10:30:23.872Z,21.48
2022-11-29T10:32:57.488Z,22.40
2022-11-29T10:35:26.954Z,24.65
2022-11-29T10:38:29.059Z,47.60
2022-11-29T10:40:50.020Z,33.70
2022-11-29T10:43:18.259Z,30.30
2022-11-29T10:45:53.472Z,21.10
2022-11-29T10:48:23.344Z,22.95
2022-11-29T10:50:54.188Z,18.70
2022-11-29T10:53:26.419Z,23.90
2022-11-29T10:56:00.214Z,23.60
2022-11-29T11:00:59.035Z,19.70
2022-11-29T11:03:32.337Z,25.60
2022-11-29T11:06:05.808Z,26.75
2022-11-29T11:08:35.188Z,25.42
2022-11-29T11:11:04.986Z,20.45
2022-11-29T11:13:33.883Z,32.30
2022-11-29T11:16:11.475Z,23.05
2022-11-29T11:18:40.023Z,31.55
2022-11-29T11:21:13.020Z,23.27
2022-11-29T11:23:52.136Z,24.13
2022-11-29T11:26:21.975Z,21.70
2022-11-29T11:28:53.623Z,19.23
2022-11-29T11:31:30.885Z,14.77
2022-11-29T11:34:18.996Z,21.90
2022-11-29T11:36:48.467Z,17.80
2022-11-29T11:39:21.378Z,13.98
2022-11-29T11:42:08.363Z,14.17
2022-11-29T11:44:48.744Z,22.48
2022-11-29T11:47:19.900Z,12.35
2022-11-29T11:49:50.436Z,13.90
2022-11-29T11:52:23.258Z,19.17
2022-11-29T11:54:55.658Z,15.82
2022-11-29T11:57:25.109Z,21.05
2022-11-29T11:59:55.694Z,27.88
2022-11-29T12:02:29.375Z,12.35
2022-11-29T12:05:02.000Z,20.65
2022-11-29T12:08:06.368Z,19.58
2022-11-29T12:13:26.694Z,17.33
2022-11-29T12:15:56.320Z,14.52
2022-11-29T12:18:32.003Z,16.27
2022-11-29T12:21:04.691Z,15.52
2022-11-29T12:23:41.051Z,18.10
2022-11-29T12:26:41.250Z,13.88
2022-11-29T12:29:04.822Z,17.05
2022-11-29T12:31:45.250Z,20.48
2022-11-29T12:34:27.993Z,14.30
2022-11-29T12:37:03.347Z,14.48
2022-11-29T12:39:52.433Z,11.00
2022-11-29T12:42:33.394Z,13.20
2022-11-29T12:45:15.764Z,16.48
2022-11-29T12:47:53.696Z,17.25
2022-11-29T12:50:33.785Z,18.65
2022-11-29T12:53:21.209Z,9.43
2022-11-29T12:56:01.747Z,26.25
2022-11-29T12:58:41.344Z,16.10
2022-11-29T13:01:24.693Z,9.27
2022-11-29T13:04:03.919Z,9.85
2022-11-29T13:06:42.950Z,14.82
2022-11-29T13:09:40.648Z,11.75
2022-11-29T13:12:17.109Z,41.42
2022-11-29T13:14:51.774Z,22.25
2022-11-29T13:17:31.906Z,18.30
2022-11-29T13:20:05.607Z,28.08
2022-11-29T13:22:41.485Z,22.90
2022-11-29T13:25:18.541Z,17.23
2022-11-29T13:27:52.810Z,14.40
2022-11-29T13:30:21.118Z,19.58
2022-11-29T13:32:55.206Z,25.60
2022-11-29T13:35:31.346Z,25.27
2022-11-29T13:38:04.820Z,32.55
2022-11-29T13:40:38.696Z,17.58
2022-11-29T13:48:48.192Z,17.25
2022-11-29T13:51:31.883Z,22.67
2022-11-29T13:54:03.230Z,22.73
2022-11-29T13:56:36.956Z,27.25
2022-11-29T13:59:17.617Z,16.88
2022-11-29T14:01:48.731Z,11.88
2022-11-29T14:04:26.939Z,20.92
2022-11-29T14:07:11.644Z,13.18
2022-11-29T14:09:58.788Z,16.85
2022-11-29T14:12:38.358Z,18.70
2022-11-29T14:15:28.299Z,20.08
2022-11-29T14:17:58.328Z,13.70
2022-11-29T14:20:55.478Z,20.45
2022-11-29T14:23:38.238Z,22.60
2022-11-29T14:26:28.495Z,21.95
2022-11-29T14:28:57.675Z,13.68
2022-11-29T14:31:50.920Z,13.82
2022-11-29T14:34:36.103Z,13.20
2022-11-29T14:37:17.048Z,18.88
2022-11-29T14:39:48.151Z,11.95
2022-11-29T14:42:19.391Z,14.52
2022-11-29T14:44:52.185Z,11.45
2022-11-29T14:47:29.859Z,16.77
2022-11-29T14:50:00.135Z,14.20
2022-11-29T14:52:30.930Z,26.70
2022-11-29T14:55:03.053Z,14.57
2022-11-29T14:58:07.549Z,18.85
2022-11-29T15:00:53.920Z,26.17
2022-11-29T15:03:30.081Z,23.83
2022-11-29T15:06:00.591Z,16.58
2022-11-29T15:08:35.707Z,17.48
2022-11-29T15:11:12.563Z,13.57
2022-11-29T15:13:52.228Z,16.58
2022-11-29T15:16:37.628Z,20.67
2022-11-29T15:19:52.999Z,16.20
2022-11-29T15:22:26.593Z,21.95
2022-11-29T15:24:56.686Z,27.33
2022-11-29T15:27:25.336Z,27.33
2022-11-29T15:29:53.350Z,24.67
2022-11-29T15:32:26.329Z,25.63
2022-11-29T15:34:56.269Z,25.47
2022-11-29T15:37:42.784Z,21.35
2022-11-29T15:40:14.346Z,32.22
2022-11-29T15:42:45.310Z,26.88
2022-11-29T15:45:31.435Z,24.85
2022-11-29T15:48:16.828Z,22.80
2022-11-29T15:50:50.561Z,28.30
2022-11-29T15:53:24.320Z,23.77
2022-11-29T15:55:55.848Z,32.92
2022-11-29T15:58:26.032Z,24.05
2022-11-29T16:00:54.730Z,30.02
2022-11-29T16:03:27.177Z,27.55
2022-11-29T16:06:03.634Z,23.67
2022-11-29T16:08:38.934Z,25.92
2022-11-29T16:11:07.984Z,40.88
2022-11-29T16:13:38.791Z,29.58
2022-11-29T16:16:16.020Z,27.20
2022-11-29T16:18:46.387Z,34.33
2022-11-29T16:21:26.469Z,42.58
2022-11-29T16:23:56.603Z,38.25
2022-11-29T16:26:28.616Z,37.53
2022-11-29T16:28:58.120Z,39.50
2022-11-29T16:31:32.916Z,36.60
2022-11-29T16:34:08.603Z,37.28
2022-11-29T16:36:37.068Z,38.67
2022-11-29T16:39:16.638Z,42.03
2022-11-29T16:41:44.789Z,36.75
2022-11-29T16:44:55.146Z,43.40
2022-11-29T16:47:25.432Z,39.45
2022-11-29T16:50:13.753Z,47.75
2022-11-29T16:52:42.334Z,52.67
2022-11-29T16:55:11.868Z,47.20
2022-11-29T16:57:40.862Z,44.15
2022-11-29T17:00:24.668Z,53.97
2022-11-29T17:02:52.830Z,40.55
2022-11-29T17:05:21.032Z,44.70
2022-11-29T17:07:49.615Z,36.63
2022-11-29T17:10:23.636Z,41.78
2022-11-29T17:12:51.881Z,38.28
2022-11-29T17:15:20.049Z,44.13
2022-11-29T17:17:49.304Z,57.10
2022-11-29T17:20:17.531Z,44.38
2022-11-29T17:22:45.716Z,48.42
2022-11-29T17:25:13.880Z,55.58
2022-11-29T17:27:43.485Z,56.70
2022-11-29T17:30:12.576Z,49.70
2022-11-29T17:32:40.764Z,53.35
2022-11-29T17:35:09.271Z,40.33
2022-11-29T17:37:37.418Z,42.42
2022-11-29T17:40:06.007Z,58.20
2022-11-29T17:42:34.283Z,57.88
2022-11-29T17:45:04.312Z,53.95
2022-11-29T17:47:33.800Z,64.75
2022-11-29T17:50:01.983Z,52.83
2022-11-29T17:52:30.060Z,51.38
2022-11-29T17:54:58.046Z,48.25
2022-11-29T17:57:26.171Z,51.10
2022-11-29T17:59:54.234Z,49.72
2022-11-29T18:02:23.884Z,53.22
2022-11-29T18:04:51.973Z,54.30
2022-11-29T18:07:20.094Z,47.33
2022-11-29T18:09:49.061Z,55.90
2022-11-29T18:12:17.222Z,51.75
2022-11-29T18:14:45.263Z,59.08
2022-11-29T18:17:13.405Z,48.13
2022-11-29T18:19:43.260Z,52.83
2022-11-29T18:22:11.413Z,56.28
2022-11-29T18:24:43.487Z,46.03
2022-11-29T18:27:11.517Z,50.60
2022-11-29T18:29:39.540Z,56.67
2022-11-29T18:32:07.573Z,48.85
2022-11-29T18:34:35.562Z,44.33
2022-11-29T18:37:05.004Z,50.90
2022-11-29T18:39:32.994Z,51.58
2022-11-29T18:42:01.021Z,49.38
2022-11-29T18:44:30.391Z,48.08
2022-11-29T18:46:58.886Z,51.28
2022-11-29T18:49:27.039Z,64.93
2022-11-29T18:51:55.062Z,59.00
2022-11-29T18:54:24.498Z,60.50
2022-11-29T18:56:52.880Z,56.30
2022-11-29T18:59:22.115Z,48.80
2022-11-29T19:01:50.564Z,62.75
2022-11-29T19:04:20.977Z,68.22
2022-11-29T19:06:48.990Z,59.15
2022-11-29T19:09:19.268Z,53.17
2022-11-29T19:11:49.894Z,55.70
2022-11-29T19:14:18.087Z,67.07
2022-11-29T19:16:48.169Z,53.78
2022-11-29T19:19:18.678Z,55.22
2022-11-29T19:21:46.761Z,75.68
2022-11-29T19:24:17.919Z,82.00
2022-11-29T19:26:48.954Z,49.97
2022-11-29T19:29:17.711Z,59.03
2022-11-29T19:31:45.831Z,51.80
2022-11-29T19:34:13.852Z,58.05
2022-11-29T19:36:44.408Z,59.80
2022-11-29T19:39:14.421Z,57.78
2022-11-29T19:41:43.801Z,56.42
2022-11-29T19:44:13.511Z,61.30
2022-11-29T19:46:43.800Z,64.03
2022-11-29T19:49:11.965Z,72.88
2022-11-29T19:51:40.188Z,59.67
2022-11-29T19:54:09.447Z,65.28
2022-11-29T19:56:38.276Z,63.67
2022-11-29T19:59:07.966Z,62.35
2022-11-29T20:01:42.783Z,65.35
2022-11-29T20:04:13.002Z,69.38
2022-11-29T20:06:41.483Z,65.57
2022-11-29T20:09:09.663Z,77.72
2022-11-29T20:11:37.776Z,69.43
2022-11-29T20:14:06.983Z,71.90
2022-11-29T20:16:35.194Z,73.45
2022-11-29T20:19:08.579Z,61.72
2022-11-29T20:21:38.161Z,61.67
2022-11-29T20:24:08.268Z,62.95
2022-11-29T20:26:39.019Z,71.60
2022-11-29T20:29:09.522Z,68.63
2022-11-29T20:31:43.052Z,67.43
2022-11-29T20:34:16.045Z,69.15
2022-11-29T20:36:58.564Z,65.25
2022-11-29T20:39:38.958Z,79.50
2022-11-29T20:42:34.127Z,66.25
2022-11-29T20:45:04.839Z,80.35
2022-11-29T20:47:41.852Z,69.10
2022-11-29T20:50:17.651Z,64.70
2022-11-29T20:52:53.291Z,69.55
2022-11-29T20:55:21.350Z,74.85
2022-11-29T20:57:50.024Z,75.25
2022-11-29T21:00:18.756Z,75.03
2022-11-29T21:02:46.857Z,65.10
2022-11-29T21:05:16.887Z,78.90
2022-11-29T21:07:45.867Z,67.57
2022-11-29T21:10:15.004Z,75.53
2022-11-29T21:12:45.669Z,73.55
2022-11-29T21:15:14.938Z,72.63
2022-11-29T21:17:44.431Z,71.15
2022-11-29T21:20:19.545Z,110.38
2022-11-29T21:22:55.116Z,116.72
2022-11-29T21:25:34.383Z,118.65
2022-11-29T21:28:03.697Z,95.55
2022-11-29T21:30:32.098Z,89.70
2022-11-29T21:33:00.630Z,101.45
2022-11-29T21:35:30.015Z,111.22
2022-11-29T21:38:01.875Z,143.18
2022-11-29T21:40:29.919Z,119.22
2022-11-29T21:42:57.962Z,104.72
2022-11-29T21:45:26.246Z,113.88
2022-11-29T21:47:54.262Z,112.38
2022-11-29T21:50:22.447Z,89.35
2022-11-29T21:52:56.085Z,93.95
2022-11-29T21:55:31.564Z,81.45
2022-11-29T21:58:00.190Z,90.95
2022-11-29T22:00:30.956Z,89.93
2022-11-29T22:03:02.561Z,85.13
2022-11-29T22:05:30.858Z,82.30
2022-11-29T22:08:01.740Z,98.63
2022-11-29T22:10:32.758Z,85.60
2022-11-29T22:13:03.008Z,80.65
2022-11-29T22:19:07.824Z,86.28
2022-11-29T22:30:40.675Z,67.25
2022-11-29T22:33:13.265Z,71.07
2022-11-29T22:35:44.317Z,75.38
2022-11-29T22:38:12.410Z,66.70
2022-11-29T22:40:40.653Z,66.18
2022-11-29T22:43:08.728Z,63.00
2022-11-29T22:45:36.688Z,65.60
2022-11-29T22:48:06.425Z,64.47
2022-11-29T22:50:34.401Z,66.63
2022-11-29T22:53:02.498Z,64.32
2022-11-29T22:55:30.513Z,57.30
2022-11-29T22:57:58.562Z,57.85
2022-11-29T23:00:26.579Z,54.00
2022-11-29T23:02:58.026Z,51.30
2022-11-29T23:05:32.136Z,52.17
2022-11-29T23:08:00.708Z,52.35
2022-11-29T23:10:28.729Z,59.95
2022-11-29T23:12:56.723Z,57.60
2022-11-29T23:15:24.777Z,66.38
2022-11-29T23:17:53.535Z,73.75
2022-11-29T23:20:21.536Z,79.53
2022-11-29T23:22:50.935Z,84.03
2022-11-29T23:25:19.082Z,67.70
2022-11-29T23:27:47.098Z,72.50
2022-11-29T23:30:15.713Z,63.03
2022-11-29T23:32:43.766Z,60.22
2022-11-29T23:35:11.748Z,67.47
2022-11-29T23:37:39.777Z,62.88
2022-11-29T23:40:10.914Z,62.22
2022-11-29T23:42:42.361Z,67.50
2022-11-29T23:45:12.186Z,66.25
2022-11-29T23:47:40.285Z,59.70
2022-11-29T23:50:11.718Z,54.15
2022-11-29T23:52:39.746Z,56.13
2022-11-29T23:55:10.453Z,49.78
2022-11-29T23:57:38.516Z,44.35
